No particular awareness of the weather is required.    There are no Weather-warnings


Meteo18 Weather Cam more information Meteo18 Weather Cam


Thunder radar more information blitzortung!


Rain radar more information rain snow radar


Visit our other weather sites:

Template documentation
and downloads

And another site



Weather Underground History page Text

Daily Summary for April 2, 2016 Units:  Metric    English   Both
« Previous Day
Next Day »
Daily Weekly Monthly Yearly Custom
  High: Low: Average:
Temperature: 11.7 °C 0.9 °C 6.9 °C
Dew Point: 9.8 °C 0.5 °C 5.9 °C
Humidity: 98 % 83 % 94 %
Wind Speed: 3.2 km/h 0.0 km/h 0.1 km/h
Wind Gust: 8.0 km/h - -
Wind:- - SSW
Pressure: 1018.2 hPa 1009.4 hPa -
Precipitation: 2.3 mm    
Historical Graphs
 
 
Tabular Data for April 2, 2016
Time Temperature Dew Point Pressure Wind Wind Speed Wind Gust Humidity Rainfall Rate (Hourly)
00:02 3.0 °C 2.3 °C 1018.2 hPa Calm     95 % 0.0 mm
00:12 2.8 °C 2.1 °C 1018.2 hPa Calm     95 % 0.0 mm
00:17 2.9 °C 2.2 °C 1018.2 hPa Calm     95 % 0.0 mm
00:22 2.8 °C 2.1 °C 1018.2 hPa Calm     95 % 0.0 mm
00:27 2.7 °C 2.0 °C 1018.2 hPa Calm     95 % 0.0 mm
00:32 2.7 °C 2.0 °C 1018.2 hPa Calm     95 % 0.0 mm
00:37 2.5 °C 1.8 °C 1018.2 hPa Calm     95 % 0.0 mm
00:42 2.4 °C 1.7 °C 1018.2 hPa Calm     95 % 0.0 mm
00:47 2.4 °C 1.8 °C 1018.2 hPa Calm     96 % 0.0 mm
00:52 2.3 °C 1.6 °C 1018.2 hPa Calm     95 % 0.0 mm
00:57 2.3 °C 1.7 °C 1018.2 hPa Calm     96 % 0.0 mm
01:02 2.3 °C 1.7 °C 1018.2 hPa Calm     96 % 0.0 mm
01:07 2.1 °C 1.4 °C 1018.2 hPa Calm     95 % 0.0 mm
01:12 2.1 °C 1.5 °C 1017.8 hPa Calm     96 % 0.0 mm
01:17 2.1 °C 1.5 °C 1017.8 hPa Calm     96 % 0.0 mm
01:22 2.0 °C 1.4 °C 1017.8 hPa Calm     96 % 0.0 mm
01:27 2.0 °C 1.4 °C 1017.8 hPa Calm     96 % 0.0 mm
01:32 2.1 °C 1.5 °C 1017.8 hPa Calm     96 % 0.0 mm
01:37 2.1 °C 1.5 °C 1017.8 hPa Calm     96 % 0.0 mm
01:42 1.9 °C 1.3 °C 1017.8 hPa Calm     96 % 0.0 mm
01:47 1.7 °C 1.1 °C 1017.5 hPa Calm     96 % 0.0 mm
01:52 1.6 °C 1.0 °C 1017.5 hPa Calm     96 % 0.0 mm
01:57 1.6 °C 1.0 °C 1017.5 hPa Calm     96 % 0.0 mm
02:02 1.6 °C 1.0 °C 1017.5 hPa Calm     96 % 0.0 mm
02:07 1.7 °C 1.1 °C 1017.5 hPa Calm     96 % 0.0 mm
02:12 1.6 °C 1.0 °C 1017.5 hPa Calm     96 % 0.0 mm
02:17 1.6 °C 1.0 °C 1017.5 hPa Calm     96 % 0.0 mm
02:27 1.4 °C 0.8 °C 1017.5 hPa Calm     96 % 0.0 mm
02:37 1.3 °C 0.7 °C 1017.5 hPa Calm     96 % 0.0 mm
02:42 1.3 °C 0.7 °C 1017.2 hPa Calm     96 % 0.0 mm
02:47 1.2 °C 0.6 °C 1017.2 hPa Calm     96 % 0.0 mm
02:52 1.1 °C 0.5 °C 1017.5 hPa Calm     96 % 0.0 mm
02:57 1.3 °C 0.9 °C 1017.2 hPa Calm     97 % 0.0 mm
03:02 1.3 °C 0.9 °C 1017.2 hPa Calm     97 % 0.0 mm
03:07 1.2 °C 0.8 °C 1017.2 hPa Calm     97 % 0.0 mm
03:12 1.3 °C 0.9 °C 1017.2 hPa Calm     97 % 0.0 mm
03:17 1.3 °C 0.9 °C 1017.2 hPa Calm     97 % 0.0 mm
03:22 1.3 °C 0.9 °C 1016.8 hPa Calm     97 % 0.0 mm
03:27 1.2 °C 0.8 °C 1017.2 hPa Calm     97 % 0.0 mm
03:32 1.1 °C 0.5 °C 1016.8 hPa Calm     96 % 0.0 mm
03:37 1.1 °C 0.7 °C 1016.8 hPa Calm     97 % 0.0 mm
03:42 0.9 °C 0.5 °C 1016.8 hPa Calm     97 % 0.0 mm
03:52 1.2 °C 0.8 °C 1016.5 hPa Calm     97 % 0.0 mm
03:57 1.2 °C 0.8 °C 1016.5 hPa Calm     97 % 0.0 mm
04:02 1.1 °C 0.7 °C 1016.5 hPa Calm     97 % 0.0 mm
04:07 1.0 °C 0.6 °C 1016.5 hPa Calm     97 % 0.0 mm
04:12 0.9 °C 0.5 °C 1016.1 hPa Calm     97 % 0.0 mm
04:17 0.9 °C 0.5 °C 1016.1 hPa Calm     97 % 0.0 mm
04:22 1.1 °C 0.7 °C 1016.1 hPa SE 1.6 km/h 1.6 km/h 97 % 0.0 mm
04:27 1.1 °C 0.7 °C 1016.1 hPa Calm   1.6 km/h 97 % 0.0 mm
04:32 1.0 °C 0.6 °C 1016.1 hPa Calm   1.6 km/h 97 % 0.0 mm
04:37 1.2 °C 0.8 °C 1016.5 hPa Calm   1.6 km/h 97 % 0.0 mm
04:42 1.2 °C 0.8 °C 1016.1 hPa Calm     97 % 0.0 mm
04:47 1.2 °C 0.8 °C 1016.1 hPa Calm     97 % 0.0 mm
04:52 1.2 °C 0.8 °C 1016.1 hPa Calm     97 % 0.0 mm
04:57 1.3 °C 0.9 °C 1016.1 hPa Calm     97 % 0.0 mm
05:02 1.4 °C 1.0 °C 1016.1 hPa Calm     97 % 0.0 mm
05:07 1.4 °C 1.0 °C 1016.1 hPa Calm     97 % 0.0 mm
05:12 1.6 °C 1.2 °C 1015.8 hPa Calm     97 % 0.0 mm
05:17 1.7 °C 1.3 °C 1015.8 hPa Calm     97 % 0.0 mm
05:22 1.9 °C 1.5 °C 1015.8 hPa Calm     97 % 0.0 mm
05:27 2.1 °C 1.8 °C 1015.8 hPa Calm     98 % 0.0 mm
05:32 2.3 °C 2.0 °C 1015.5 hPa Calm     98 % 0.0 mm
05:37 2.3 °C 2.0 °C 1015.5 hPa Calm     98 % 0.0 mm
05:42 2.3 °C 2.0 °C 1015.5 hPa Calm     98 % 0.0 mm
05:47 2.3 °C 1.9 °C 1015.1 hPa Calm     97 % 0.0 mm
05:52 2.3 °C 1.9 °C 1015.1 hPa Calm   1.6 km/h 97 % 0.0 mm
05:57 2.3 °C 1.9 °C 1015.1 hPa Calm   1.6 km/h 97 % 0.0 mm
06:02 2.2 °C 1.8 °C 1015.1 hPa Calm   1.6 km/h 97 % 0.0 mm
06:07 2.1 °C 1.7 °C 1014.8 hPa Calm   1.6 km/h 97 % 0.0 mm
06:12 2.1 °C 1.7 °C 1014.4 hPa Calm   1.6 km/h 97 % 0.0 mm
06:17 2.3 °C 1.9 °C 1014.4 hPa Calm   1.6 km/h 97 % 0.0 mm
06:22 2.3 °C 1.9 °C 1014.8 hPa Calm   1.6 km/h 97 % 0.0 mm
06:27 2.3 °C 1.9 °C 1014.8 hPa Calm   1.6 km/h 97 % 0.0 mm
06:32 2.3 °C 1.9 °C 1014.8 hPa Calm     97 % 0.0 mm
06:37 2.4 °C 2.0 °C 1014.8 hPa Calm     97 % 0.0 mm
06:42 2.4 °C 2.1 °C 1014.8 hPa Calm     98 % 0.0 mm
06:47 2.4 °C 2.1 °C 1014.8 hPa Calm     98 % 0.0 mm
06:52 2.5 °C 2.2 °C 1014.8 hPa Calm     98 % 0.0 mm
07:02 2.6 °C 2.3 °C 1014.8 hPa Calm     98 % 0.0 mm
07:07 2.6 °C 2.3 °C 1014.4 hPa Calm     98 % 0.0 mm
07:12 2.6 °C 2.3 °C 1014.4 hPa Calm     98 % 0.0 mm
07:17 2.7 °C 2.4 °C 1014.4 hPa Calm     98 % 0.0 mm
07:22 2.7 °C 2.4 °C 1014.8 hPa Calm     98 % 0.0 mm
07:27 2.8 °C 2.5 °C 1014.8 hPa Calm     98 % 0.0 mm
07:32 2.8 °C 2.5 °C 1014.8 hPa Calm     98 % 0.0 mm
07:37 2.8 °C 2.5 °C 1014.8 hPa Calm     98 % 0.0 mm
07:42 3.0 °C 2.7 °C 1014.4 hPa Calm     98 % 0.0 mm
07:47 3.2 °C 2.9 °C 1014.4 hPa Calm     98 % 0.0 mm
07:52 3.3 °C 3.0 °C 1014.4 hPa Calm   1.6 km/h 98 % 0.0 mm
07:57 3.5 °C 3.2 °C 1014.4 hPa Calm   1.6 km/h 98 % 0.0 mm
08:02 3.6 °C 3.3 °C 1014.4 hPa Calm   1.6 km/h 98 % 0.0 mm
08:07 3.6 °C 3.3 °C 1014.4 hPa Calm   1.6 km/h 98 % 0.0 mm
08:12 3.7 °C 3.4 °C 1014.8 hPa Calm   1.6 km/h 98 % 0.0 mm
08:17 3.7 °C 3.4 °C 1014.8 hPa Calm   1.6 km/h 98 % 0.0 mm
08:22 3.8 °C 3.5 °C 1014.4 hPa Calm   1.6 km/h 98 % 0.0 mm
08:27 3.9 °C 3.6 °C 1014.4 hPa Calm     98 % 0.0 mm
08:32 4.1 °C 3.8 °C 1014.4 hPa Calm   1.6 km/h 98 % 0.0 mm
08:37 4.2 °C 3.9 °C 1014.8 hPa Calm   1.6 km/h 98 % 0.0 mm
08:42 4.3 °C 4.0 °C 1014.8 hPa Calm   1.6 km/h 98 % 0.0 mm
08:47 4.5 °C 4.2 °C 1014.4 hPa Calm   1.6 km/h 98 % 0.0 mm
08:52 4.7 °C 4.4 °C 1014.8 hPa Calm   1.6 km/h 98 % 0.0 mm
08:57 4.8 °C 4.5 °C 1014.8 hPa Calm   1.6 km/h 98 % 0.0 mm
09:02 5.0 °C 4.7 °C 1014.8 hPa Calm     98 % 0.0 mm
09:07 5.1 °C 4.8 °C 1014.8 hPa Calm   1.6 km/h 98 % 0.0 mm
09:12 5.3 °C 5.0 °C 1014.8 hPa Calm   1.6 km/h 98 % 0.0 mm
09:17 5.5 °C 5.2 °C 1014.8 hPa Calm   1.6 km/h 98 % 0.0 mm
09:22 5.6 °C 5.3 °C 1014.8 hPa Calm     98 % 0.0 mm
09:27 5.7 °C 5.4 °C 1014.8 hPa Calm     98 % 0.0 mm
09:32 5.8 °C 5.5 °C 1014.8 hPa Calm   1.6 km/h 98 % 0.0 mm
09:37 5.9 °C 5.6 °C 1014.8 hPa Calm   1.6 km/h 98 % 0.0 mm
09:42 6.1 °C 5.8 °C 1014.8 hPa Calm     98 % 0.0 mm
09:47 6.2 °C 5.9 °C 1014.8 hPa ESE 1.6 km/h 1.6 km/h 98 % 0.0 mm
09:52 6.3 °C 6.0 °C 1014.8 hPa Calm   3.2 km/h 98 % 0.0 mm
09:57 6.4 °C 6.0 °C 1014.8 hPa Calm   3.2 km/h 97 % 0.0 mm
10:07 6.7 °C 6.3 °C 1014.4 hPa ESE 1.6 km/h 3.2 km/h 97 % 0.0 mm
10:12 6.8 °C 6.2 °C 1014.4 hPa Calm   4.8 km/h 96 % 0.0 mm
10:17 6.9 °C 6.3 °C 1014.4 hPa Calm   4.8 km/h 96 % 0.0 mm
10:22 7.0 °C 6.3 °C 1014.4 hPa Calm   3.2 km/h 95 % 0.0 mm
10:27 7.1 °C 6.4 °C 1014.4 hPa Calm   3.2 km/h 95 % 0.0 mm
10:37 7.1 °C 6.2 °C 1014.4 hPa Calm   3.2 km/h 94 % 0.0 mm
10:42 7.1 °C 6.2 °C 1014.8 hPa Calm   4.8 km/h 94 % 0.0 mm
10:47 7.1 °C 6.0 °C 1014.8 hPa Calm   4.8 km/h 93 % 0.0 mm
10:52 7.2 °C 6.1 °C 1014.4 hPa Calm   3.2 km/h 93 % 0.0 mm
10:57 7.3 °C 6.2 °C 1014.4 hPa Calm   4.8 km/h 93 % 0.0 mm
11:02 7.4 °C 6.3 °C 1014.4 hPa Calm   4.8 km/h 93 % 0.0 mm
11:07 7.7 °C 6.6 °C 1014.1 hPa Calm   4.8 km/h 93 % 0.0 mm
11:12 7.9 °C 6.8 °C 1014.1 hPa Calm   4.8 km/h 93 % 0.0 mm
11:17 8.3 °C 7.2 °C 1014.1 hPa Calm   1.6 km/h 93 % 0.0 mm
11:22 8.6 °C 7.4 °C 1013.8 hPa Calm     92 % 0.0 mm
11:27 8.7 °C 7.2 °C 1013.8 hPa Calm   1.6 km/h 90 % 0.0 mm
11:32 8.6 °C 7.1 °C 1013.4 hPa Calm   3.2 km/h 90 % 0.0 mm
11:37 8.6 °C 7.1 °C 1013.4 hPa Calm   3.2 km/h 90 % 0.0 mm
11:42 8.7 °C 7.3 °C 1013.4 hPa Calm   3.2 km/h 91 % 0.0 mm
11:47 8.8 °C 7.2 °C 1012.8 hPa NNW 1.6 km/h 4.8 km/h 90 % 0.0 mm
11:52 8.8 °C 7.2 °C 1012.8 hPa Calm   4.8 km/h 90 % 0.0 mm
11:57 8.9 °C 7.2 °C 1013.1 hPa Calm   4.8 km/h 89 % 0.0 mm
12:02 8.9 °C 7.2 °C 1012.8 hPa ESE 1.6 km/h 4.8 km/h 89 % 0.0 mm
12:07 8.9 °C 7.2 °C 1012.8 hPa Calm   4.8 km/h 89 % 0.0 mm
12:12 9.0 °C 7.3 °C 1012.8 hPa NE 3.2 km/h 4.8 km/h 89 % 0.0 mm
12:17 9.1 °C 7.4 °C 1012.8 hPa Calm   4.8 km/h 89 % 0.0 mm
12:22 9.1 °C 7.2 °C 1012.8 hPa Calm   6.4 km/h 88 % 0.0 mm
12:27 9.1 °C 7.4 °C 1012.8 hPa Calm   6.4 km/h 89 % 0.0 mm
12:32 9.1 °C 7.4 °C 1012.8 hPa Calm   6.4 km/h 89 % 0.0 mm
12:37 9.1 °C 7.4 °C 1012.4 hPa Calm   3.2 km/h 89 % 0.0 mm
12:42 9.2 °C 7.6 °C 1012.4 hPa Calm   3.2 km/h 90 % 0.0 mm
12:47 9.4 °C 7.7 °C 1012.1 hPa North 3.2 km/h 3.2 km/h 89 % 0.0 mm
12:57 9.6 °C 7.9 °C 1012.4 hPa Calm   3.2 km/h 89 % 0.0 mm
13:02 9.6 °C 7.9 °C 1012.1 hPa North 1.6 km/h 3.2 km/h 89 % 0.0 mm
13:07 9.7 °C 8.0 °C 1012.1 hPa North 3.2 km/h 3.2 km/h 89 % 0.0 mm
13:12 9.8 °C 8.1 °C 1012.1 hPa Calm   3.2 km/h 89 % 0.0 mm
13:17 10.0 °C 8.1 °C 1011.7 hPa Calm   3.2 km/h 88 % 0.0 mm
13:22 10.0 °C 7.9 °C 1011.7 hPa SSE 1.6 km/h 3.2 km/h 87 % 0.0 mm
13:27 10.1 °C 8.2 °C 1011.7 hPa Calm   4.8 km/h 88 % 0.0 mm
13:32 10.2 °C 8.3 °C 1011.7 hPa Calm   4.8 km/h 88 % 0.0 mm
13:37 10.4 °C 8.3 °C 1011.7 hPa Calm   4.8 km/h 87 % 0.0 mm
13:42 10.6 °C 8.4 °C 1011.4 hPa Calm   3.2 km/h 86 % 0.0 mm
13:47 10.8 °C 8.6 °C 1011.4 hPa Calm   3.2 km/h 86 % 0.0 mm
13:52 10.9 °C 8.5 °C 1011.4 hPa Calm   3.2 km/h 85 % 0.0 mm
13:57 11.0 °C 8.7 °C 1011.4 hPa Calm   3.2 km/h 86 % 0.0 mm
14:02 11.1 °C 8.7 °C 1011.4 hPa Calm   1.6 km/h 85 % 0.0 mm
14:12 11.2 °C 8.9 °C 1011.4 hPa Calm   3.2 km/h 86 % 0.0 mm
14:17 11.2 °C 8.8 °C 1011.4 hPa Calm   3.2 km/h 85 % 0.0 mm
14:22 11.1 °C 8.7 °C 1011.4 hPa Calm   4.8 km/h 85 % 0.0 mm
14:27 11.0 °C 8.6 °C 1011.1 hPa Calm   8.0 km/h 85 % 0.0 mm
14:32 10.9 °C 8.5 °C 1011.1 hPa Calm   8.0 km/h 85 % 0.0 mm
14:37 10.9 °C 8.6 °C 1011.1 hPa Calm   3.2 km/h 86 % 0.0 mm
14:42 10.9 °C 8.5 °C 1011.1 hPa Calm   4.8 km/h 85 % 0.0 mm
14:47 10.9 °C 8.6 °C 1011.1 hPa Calm   4.8 km/h 86 % 0.0 mm
14:52 10.9 °C 8.5 °C 1011.1 hPa Calm   4.8 km/h 85 % 0.0 mm
14:57 10.9 °C 8.6 °C 1011.1 hPa WNW 3.2 km/h 3.2 km/h 86 % 0.0 mm
15:02 10.9 °C 8.6 °C 1011.1 hPa Calm   4.8 km/h 86 % 0.0 mm
15:07 10.9 °C 8.6 °C 1011.1 hPa Calm   4.8 km/h 86 % 0.0 mm
15:17 10.9 °C 8.5 °C 1010.7 hPa Calm   1.6 km/h 85 % 0.0 mm
15:22 10.9 °C 8.5 °C 1010.7 hPa Calm   3.2 km/h 85 % 0.0 mm
15:27 10.9 °C 8.5 °C 1010.7 hPa NW 1.6 km/h 4.8 km/h 85 % 0.0 mm
15:32 11.0 °C 8.6 °C 1010.4 hPa SW 1.6 km/h 4.8 km/h 85 % 0.0 mm
15:37 11.0 °C 8.6 °C 1010.4 hPa Calm   4.8 km/h 85 % 0.0 mm
15:42 11.0 °C 8.6 °C 1010.4 hPa Calm   6.4 km/h 85 % 0.0 mm
15:47 11.1 °C 8.7 °C 1010.4 hPa Calm   6.4 km/h 85 % 0.0 mm
15:52 11.1 °C 8.5 °C 1010.4 hPa Calm   6.4 km/h 84 % 0.0 mm
15:57 11.1 °C 8.5 °C 1010.4 hPa Calm   3.2 km/h 84 % 0.0 mm
16:02 11.2 °C 8.8 °C 1010.0 hPa Calm   3.2 km/h 85 % 0.0 mm
16:07 11.3 °C 8.9 °C 1010.0 hPa Calm   3.2 km/h 85 % 0.0 mm
16:12 11.4 °C 9.0 °C 1010.0 hPa Calm   1.6 km/h 85 % 0.0 mm
16:17 11.6 °C 9.0 °C 1010.0 hPa NNW 1.6 km/h 1.6 km/h 84 % 0.0 mm
16:22 11.6 °C 8.8 °C 1010.0 hPa NNW 1.6 km/h 4.8 km/h 83 % 0.0 mm
16:27 11.6 °C 9.0 °C 1010.0 hPa Calm   4.8 km/h 84 % 0.0 mm
16:32 11.7 °C 9.1 °C 1010.0 hPa Calm   4.8 km/h 84 % 0.0 mm
16:37 11.7 °C 9.1 °C 1010.0 hPa NW 3.2 km/h 3.2 km/h 84 % 0.0 mm
16:42 11.7 °C 9.1 °C 1010.0 hPa Calm   3.2 km/h 84 % 0.0 mm
16:47 11.7 °C 9.1 °C 1010.0 hPa Calm   3.2 km/h 84 % 0.0 mm
16:52 11.7 °C 9.1 °C 1010.0 hPa Calm   3.2 km/h 84 % 0.0 mm
16:57 11.6 °C 9.0 °C 1010.0 hPa Calm   3.2 km/h 84 % 0.0 mm
17:02 11.6 °C 9.0 °C 1010.0 hPa Calm   3.2 km/h 84 % 0.0 mm
17:12 11.6 °C 9.0 °C 1010.0 hPa Calm   1.6 km/h 84 % 0.0 mm
17:17 11.4 °C 9.0 °C 1010.0 hPa Calm   4.8 km/h 85 % 0.0 mm
17:22 11.4 °C 9.1 °C 1010.0 hPa Calm   4.8 km/h 86 % 0.0 mm
17:32 11.4 °C 9.3 °C 1010.0 hPa Calm     87 % 0.0 mm
17:37 11.4 °C 9.5 °C 1010.0 hPa Calm     88 % 0.0 mm
17:42 11.4 °C 9.7 °C 1010.0 hPa Calm     89 % 0.0 mm
17:47 11.4 °C 9.7 °C 1010.0 hPa Calm     89 % 0.0 mm
17:52 11.4 °C 9.7 °C 1010.0 hPa Calm     89 % 0.3 mm
17:57 11.3 °C 9.6 °C 1010.4 hPa Calm   1.6 km/h 89 % 0.3 mm
18:02 11.2 °C 9.5 °C 1010.0 hPa Calm   1.6 km/h 89 % 0.3 mm
18:07 11.2 °C 9.6 °C 1010.4 hPa Calm   1.6 km/h 90 % 0.3 mm
18:12 11.2 °C 9.6 °C 1010.4 hPa Calm   1.6 km/h 90 % 0.3 mm
18:17 11.1 °C 9.5 °C 1010.4 hPa Calm   1.6 km/h 90 % 0.5 mm
18:22 11.1 °C 9.5 °C 1010.4 hPa Calm   1.6 km/h 90 % 0.5 mm
18:27 11.0 °C 9.6 °C 1010.4 hPa Calm   1.6 km/h 91 % 0.5 mm
18:32 11.0 °C 9.8 °C 1010.0 hPa Calm     92 % 0.5 mm
18:37 11.0 °C 9.8 °C 1010.0 hPa Calm     92 % 0.8 mm
18:42 10.9 °C 9.8 °C 1010.0 hPa Calm     93 % 0.8 mm
18:47 10.8 °C 9.7 °C 1010.0 hPa Calm     93 % 0.5 mm
18:52 10.8 °C 9.7 °C 1010.0 hPa Calm     93 % 0.5 mm
18:57 10.8 °C 9.7 °C 1009.7 hPa Calm     93 % 0.5 mm
19:02 10.7 °C 9.8 °C 1010.0 hPa Calm     94 % 0.5 mm
19:07 10.7 °C 9.8 °C 1009.7 hPa Calm     94 % 0.5 mm
19:12 10.7 °C 9.8 °C 1009.7 hPa Calm     94 % 0.5 mm
19:17 10.7 °C 9.8 °C 1009.7 hPa Calm     94 % 0.5 mm
19:22 10.6 °C 9.7 °C 1010.0 hPa Calm     94 % 0.5 mm
19:32 10.5 °C 9.6 °C 1009.4 hPa Calm     94 % 0.5 mm
19:37 10.4 °C 9.5 °C 1009.7 hPa Calm   1.6 km/h 94 % 0.5 mm
19:42 10.4 °C 9.5 °C 1009.7 hPa Calm   1.6 km/h 94 % 0.5 mm
19:47 10.3 °C 9.4 °C 1009.7 hPa Calm     94 % 0.5 mm
19:52 10.3 °C 9.4 °C 1009.7 hPa Calm     94 % 0.5 mm
19:57 10.2 °C 9.4 °C 1009.7 hPa Calm     95 % 0.5 mm
20:02 10.2 °C 9.4 °C 1010.0 hPa Calm     95 % 0.5 mm
20:07 10.2 °C 9.4 °C 1010.0 hPa Calm     95 % 0.5 mm
20:12 10.1 °C 9.3 °C 1010.0 hPa Calm     95 % 0.5 mm
20:17 10.1 °C 9.3 °C 1010.0 hPa Calm     95 % 0.5 mm
20:22 10.1 °C 9.3 °C 1010.0 hPa Calm     95 % 0.5 mm
20:27 10.0 °C 9.2 °C 1010.0 hPa Calm     95 % 0.5 mm
20:32 9.9 °C 9.1 °C 1010.0 hPa Calm     95 % 0.3 mm
20:37 9.9 °C 9.1 °C 1010.0 hPa Calm     95 % 0.5 mm
20:42 9.9 °C 9.3 °C 1010.0 hPa Calm     96 % 0.5 mm
20:52 9.8 °C 9.2 °C 1010.0 hPa Calm     96 % 0.5 mm
20:57 9.8 °C 9.2 °C 1010.4 hPa Calm     96 % 0.5 mm
21:02 9.8 °C 9.2 °C 1010.4 hPa Calm     96 % 0.5 mm
21:07 9.8 °C 9.2 °C 1010.4 hPa Calm   1.6 km/h 96 % 0.5 mm
21:12 9.8 °C 9.2 °C 1010.0 hPa Calm   1.6 km/h 96 % 0.5 mm
21:17 9.7 °C 9.1 °C 1010.0 hPa Calm     96 % 0.5 mm
21:22 9.7 °C 9.1 °C 1010.0 hPa Calm     96 % 0.5 mm
21:27 9.7 °C 9.1 °C 1010.4 hPa Calm     96 % 0.8 mm
21:32 9.6 °C 9.0 °C 1010.0 hPa Calm     96 % 0.8 mm
21:37 9.7 °C 9.1 °C 1010.0 hPa Calm     96 % 0.5 mm
21:42 9.7 °C 9.1 °C 1010.0 hPa Calm     96 % 0.5 mm
21:47 9.7 °C 9.1 °C 1010.0 hPa Calm     96 % 0.5 mm
21:52 9.7 °C 9.1 °C 1010.4 hPa Calm     96 % 0.5 mm
21:57 9.6 °C 9.0 °C 1010.0 hPa Calm     96 % 0.5 mm
22:02 9.7 °C 9.2 °C 1010.4 hPa Calm   1.6 km/h 97 % 0.5 mm
22:07 9.6 °C 9.0 °C 1010.0 hPa Calm   1.6 km/h 96 % 0.5 mm
22:12 9.6 °C 9.0 °C 1010.0 hPa Calm   1.6 km/h 96 % 0.3 mm
22:17 9.5 °C 8.9 °C 1010.0 hPa Calm     96 % 0.5 mm
22:22 9.5 °C 8.9 °C 1010.4 hPa Calm     96 % 0.5 mm
22:27 9.5 °C 8.9 °C 1010.0 hPa Calm     96 % 0.3 mm
22:32 9.5 °C 8.9 °C 1010.0 hPa Calm     96 % 0.3 mm
22:37 9.5 °C 9.0 °C 1010.0 hPa Calm     97 % 0.3 mm
22:42 9.5 °C 9.0 °C 1010.0 hPa Calm     97 % 0.3 mm
22:47 9.5 °C 9.0 °C 1010.4 hPa Calm     97 % 0.3 mm
22:52 9.6 °C 9.1 °C 1010.0 hPa Calm     97 % 0.3 mm
22:57 9.6 °C 9.1 °C 1010.0 hPa Calm     97 % 0.3 mm
23:02 9.6 °C 9.1 °C 1010.0 hPa Calm     97 % 0.3 mm
23:07 9.7 °C 9.2 °C 1010.0 hPa Calm     97 % 0.3 mm
23:12 9.7 °C 9.2 °C 1010.0 hPa Calm     97 % 0.3 mm
23:17 9.7 °C 9.2 °C 1010.0 hPa Calm     97 % 0.0 mm
23:22 9.7 °C 9.2 °C 1010.0 hPa Calm     97 % 0.0 mm
23:27 9.7 °C 9.2 °C 1010.0 hPa Calm     97 % 0.0 mm
23:32 9.7 °C 9.2 °C 1010.0 hPa Calm     97 % 0.0 mm
23:37 9.6 °C 9.1 °C 1010.0 hPa Calm     97 % 0.0 mm
23:42 9.7 °C 9.2 °C 1010.0 hPa Calm     97 % 0.0 mm
23:47 9.8 °C 9.3 °C 1010.0 hPa Calm   1.6 km/h 97 % 0.0 mm
23:52 9.8 °C 9.3 °C 1010.0 hPa Calm   1.6 km/h 97 % 0.0 mm
23:57 9.9 °C 9.4 °C 1010.0 hPa Calm   1.6 km/h 97 % 0.0 mm
Meteo18
Compliments of Weather Underground - 4 mb

Script developed by  Jim McMurry - jmcmurry@mwt.net Adapted for the template by  Wim van der Kuil - Leuven-Template.eu

You find our weather info also at:

European Weather Network

Weather Underground

Equipment we use:

Weather-station
Davis Vue

Weather-program
Meteohub

Weather-server
Raspberry PI 2 B+

Provider
1 and 1

Davis Vue

Meteohub

Raspberry PI 2 B+

1 and 1